SPCL/PCL METAR and TAF weather

Enter ICAO airport designator
Station Type Date Time Source
SPCL METAR 2019/02/20 17:00 UTC NOAA

SPCL 201700Z 30004KT 9999 BKN015 BKN080 29/24 Q1013 RMK BIRD HAZARD RWY 02/20 PP000


Station Type Date Time Source
SPCL Decoded METAR 2019/02/20 17:00 UTC NOAA

Pucallpa, Peru (SPCL) 08-25S 074-36W 149M
Feb 20, 2019 - 12:00 PM EST / 2019.02.20 1700 UTC
Wind: from the WNW (300 degrees) at 5 MPH (4 KT):0
Visibility: greater than 7 mile(s):0
Sky conditions: mostly cloudy
Temperature: 84 F (29 C)
Dew Point: 75 F (24 C)
Relative Humidity: 74%
Pressure (altimeter): 29.91 in. Hg (1013 hPa)
ob: SPCL 201700Z 30004KT 9999 BKN015 BKN080 29/24 Q1013 RMK BIRD HAZARD RWY 02/20 PP000
cycle: 17

Station Type Date Time Source
SPCL TAF 2019/02/20 12:36 UTC NOAA

TAF SPCL 201100Z 2012/2112 36003KT 9999 SCT015 SCT080 TX32/2019Z TN24/2111Z
TEMPO 2012/2014 00000KT BKN012 BKN080 PROB30
TEMPO 2020/2022 03005KT 5000 SHRA BKN015 FEW025TCU BKN070
BECMG 2100/2102 01003KT BKN012 BKN070


Example: see airport list